createdAt,value
2022-11-28T00:00:42.603Z,100982.28
2022-11-28T00:05:47.205Z,100974.44
2022-11-28T00:10:50.473Z,100963.34
2022-11-28T00:15:57.934Z,100961.66
2022-11-28T00:21:01.795Z,100954.84
2022-11-28T00:26:06.884Z,100959.34
2022-11-28T00:31:15.003Z,100955.16
2022-11-28T00:36:21.074Z,100946.66
2022-11-28T00:41:26.086Z,100945.03
2022-11-28T00:46:31.906Z,100947.84
2022-11-28T00:51:36.110Z,100944.44
2022-11-28T00:56:40.973Z,100938.31
2022-11-28T01:01:45.517Z,100942.03
2022-11-28T01:06:49.978Z,100926.44
2022-11-28T01:11:54.576Z,100931.09
2022-11-28T01:16:58.960Z,100903.38
2022-11-28T01:22:02.003Z,100907.88
2022-11-28T01:27:04.933Z,100924.59
2022-11-28T01:32:09.253Z,100915.94
2022-11-28T01:37:12.427Z,100925.72
2022-11-28T01:42:18.184Z,100917.94
2022-11-28T01:47:27.129Z,100921.47
2022-11-28T01:52:34.949Z,100915.41
2022-11-28T01:57:37.961Z,100912.06
2022-11-28T02:02:45.886Z,100904.22
2022-11-28T02:07:49.890Z,100901.59
2022-11-28T02:13:08.842Z,100901.66
2022-11-28T02:18:27.364Z,100914.69
2022-11-28T02:23:45.266Z,100904.28
2022-11-28T02:29:13.992Z,100905.19
2022-11-28T02:34:29.880Z,100907.84
2022-11-28T02:39:42.675Z,100910.41
2022-11-28T02:44:52.820Z,100899.84
2022-11-28T02:50:04.480Z,100906.88
2022-11-28T02:55:09.558Z,100897.19
2022-11-28T03:00:28.076Z,100891.03
2022-11-28T03:05:43.494Z,100886.06
2022-11-28T03:10:53.035Z,100888.69
2022-11-28T03:16:18.215Z,100897.47
2022-11-28T03:21:30.840Z,100901.88
2022-11-28T03:26:41.016Z,100892.25
2022-11-28T03:31:50.537Z,100897.63
2022-11-28T03:36:59.226Z,100889.69
2022-11-28T03:42:07.131Z,100897.47
2022-11-28T03:47:11.702Z,100897.38
2022-11-28T03:52:19.839Z,100890.38
2022-11-28T03:57:31.065Z,100900.09
2022-11-28T04:02:40.094Z,100900.09
2022-11-28T04:07:48.241Z,100890.38
2022-11-28T04:12:56.404Z,100895.63
2022-11-28T04:18:01.843Z,100903.53
2022-11-28T04:23:11.510Z,100906.97
2022-11-28T04:28:18.948Z,100904.38
2022-11-28T04:33:25.943Z,100899.94
2022-11-28T04:38:32.227Z,100900.75
2022-11-28T04:43:40.579Z,100897.38
2022-11-28T04:48:44.083Z,100911.22
2022-11-28T04:53:53.527Z,100912.13
2022-11-28T04:58:57.615Z,100905.31
2022-11-28T05:04:00.945Z,100907.94
2022-11-28T05:09:05.589Z,100923.69
2022-11-28T05:14:08.901Z,100932.38
2022-11-28T05:19:12.028Z,100927.22
2022-11-28T05:24:17.540Z,100930.72
2022-11-28T05:29:20.624Z,100930.78
2022-11-28T05:34:26.161Z,100935.06
2022-11-28T05:39:30.840Z,100940.59
2022-11-28T05:44:34.631Z,100936.94
2022-11-28T05:49:40.657Z,100932.59
2022-11-28T05:54:45.370Z,100931.03
2022-11-28T05:59:48.772Z,100945.81
2022-11-28T06:04:52.040Z,100950.31
2022-11-28T06:09:56.511Z,100942.41
2022-11-28T06:14:59.543Z,100931.09
2022-11-28T06:20:02.752Z,100943.38
2022-11-28T06:25:07.456Z,100941.81
2022-11-28T06:30:10.892Z,100939.25
2022-11-28T06:35:13.852Z,100935.66
2022-11-28T06:40:18.293Z,100948.66
2022-11-28T06:45:21.249Z,100945.28
2022-11-28T06:50:24.304Z,100952.31
2022-11-28T06:55:30.727Z,100956.75
2022-11-28T07:00:34.108Z,100961.97
2022-11-28T07:05:37.238Z,100973.41
2022-11-28T07:10:41.705Z,100972.59
2022-11-28T07:15:52.080Z,100969.13
2022-11-28T07:20:55.696Z,100983.19
2022-11-28T07:26:04.835Z,100974.53
2022-11-28T07:31:10.781Z,100979.09
2022-11-28T07:36:16.299Z,100996.56
2022-11-28T07:41:26.045Z,100994.84
2022-11-28T07:46:31.996Z,101004.88
2022-11-28T07:51:35.714Z,100991.13
2022-11-28T07:57:10.888Z,101001.75
2022-11-28T08:02:03.806Z,101002.72
2022-11-28T08:07:06.806Z,101006.13
2022-11-28T08:12:11.183Z,101000.00
2022-11-28T08:17:14.195Z,101008.00
2022-11-28T08:22:17.423Z,101021.19
2022-11-28T08:27:21.820Z,101027.44
2022-11-28T08:32:25.933Z,101024.09
2022-11-28T08:37:29.674Z,101023.34
2022-11-28T08:42:34.180Z,101021.91
2022-11-28T08:47:37.147Z,101027.28
2022-11-28T08:52:40.108Z,101027.44
2022-11-28T08:57:44.410Z,101029.53
2022-11-28T09:02:47.417Z,101028.63
2022-11-28T09:07:50.592Z,101027.06
2022-11-28T09:12:55.542Z,101025.59
2022-11-28T09:18:00.769Z,101026.53
2022-11-28T09:23:03.826Z,101026.69
2022-11-28T09:28:08.478Z,101025.94
2022-11-28T09:33:13.336Z,101030.41
2022-11-28T09:38:16.412Z,101028.22
2022-11-28T09:43:32.048Z,101043.31
2022-11-28T09:48:37.932Z,101051.47
2022-11-28T09:53:47.225Z,101053.34
2022-11-28T09:58:55.447Z,101054.44
2022-11-28T10:04:04.540Z,101055.59
2022-11-28T10:09:30.241Z,101060.16
2022-11-28T10:15:09.840Z,101055.38
2022-11-28T10:20:18.562Z,101062.72
2022-11-28T10:25:25.887Z,101049.72
2022-11-28T10:30:35.133Z,101049.97
2022-11-28T10:35:45.672Z,101038.34
2022-11-28T10:40:54.847Z,101052.63
2022-11-28T10:46:18.229Z,101065.34
2022-11-28T10:51:33.592Z,101069.38
2022-11-28T10:56:48.840Z,101072.00
2022-11-28T11:01:54.177Z,101055.88
2022-11-28T11:07:20.977Z,101067.13
2022-11-28T11:12:31.735Z,101058.34
2022-11-28T11:17:37.951Z,101052.03
2022-11-28T11:22:40.971Z,101048.69
2022-11-28T11:27:50.168Z,101056.13
2022-11-28T11:32:55.807Z,101057.66
2022-11-28T11:38:17.781Z,101052.72
2022-11-28T11:43:29.430Z,101057.78
2022-11-28T11:48:38.426Z,101075.09
2022-11-28T11:53:41.387Z,101066.38
2022-11-28T11:58:47.943Z,101065.03
2022-11-28T12:04:05.608Z,101072.34
2022-11-28T12:09:26.416Z,101066.38
2022-11-28T12:14:32.597Z,101061.06
2022-11-28T12:19:44.337Z,101068.03
2022-11-28T12:24:57.270Z,101071.03
2022-11-28T12:30:21.467Z,101071.78
2022-11-28T12:35:39.013Z,101080.69
2022-11-28T12:40:55.553Z,101078.66
2022-11-28T12:46:06.854Z,101069.50
2022-11-28T12:51:21.957Z,101069.25
2022-11-28T12:56:37.030Z,101068.78
2022-11-28T13:01:56.061Z,101079.41
2022-11-28T13:07:10.294Z,101082.06
2022-11-28T13:12:24.214Z,101095.28
2022-11-28T13:17:43.156Z,101085.97
2022-11-28T13:23:04.133Z,101085.19
2022-11-28T13:28:18.683Z,101087.81
2022-11-28T13:33:40.456Z,101089.13
2022-11-28T13:39:11.799Z,101089.63
2022-11-28T13:44:23.327Z,101103.44
2022-11-28T13:49:29.653Z,101105.44
2022-11-28T13:54:44.730Z,101103.31
2022-11-28T13:59:50.533Z,101108.56
2022-11-28T14:04:54.194Z,101093.47
2022-11-28T14:10:24.463Z,101095.97
2022-11-28T14:15:33.314Z,101099.47
2022-11-28T14:20:47.201Z,101107.41
2022-11-28T14:25:53.615Z,101103.81
2022-11-28T14:31:06.540Z,101119.41
2022-11-28T14:36:34.912Z,101135.41
2022-11-28T14:42:43.862Z,101129.88
2022-11-28T14:47:43.020Z,101140.38
2022-11-28T14:52:47.963Z,101135.72
2022-11-28T14:58:00.803Z,101149.34
2022-11-28T15:03:20.569Z,101147.19
2022-11-28T15:08:39.374Z,101149.06
2022-11-28T15:14:01.284Z,101144.75
2022-11-28T15:19:12.790Z,101135.28
2022-11-28T15:24:30.840Z,101149.47
2022-11-28T15:29:34.329Z,101154.91
2022-11-28T15:34:40.055Z,101168.16
2022-11-28T15:39:46.559Z,101178.09
2022-11-28T15:44:56.452Z,101175.72
2022-11-28T15:50:04.030Z,101183.06
2022-11-28T15:55:16.950Z,101190.31
2022-11-28T16:00:22.053Z,101193.34
2022-11-28T16:05:26.667Z,101195.63
2022-11-28T16:10:33.693Z,101195.53
2022-11-28T16:15:37.806Z,101205.69
2022-11-28T16:20:42.752Z,101205.28
2022-11-28T16:25:47.058Z,101223.47
2022-11-28T16:30:51.235Z,101222.25
2022-11-28T16:36:19.869Z,101228.88
2022-11-28T16:41:25.428Z,101240.03
2022-11-28T16:46:34.736Z,101237.25
2022-11-28T16:51:41.369Z,101256.69
2022-11-28T16:56:45.481Z,101253.69
2022-11-28T17:01:52.636Z,101261.31
2022-11-28T17:06:58.989Z,101270.59
2022-11-28T17:12:05.304Z,101260.84
2022-11-28T17:17:14.422Z,101266.53
2022-11-28T17:22:22.143Z,101281.84
2022-11-28T17:27:25.345Z,101284.97
2022-11-28T17:32:28.427Z,101283.09
2022-11-28T17:37:32.880Z,101282.66
2022-11-28T17:42:35.887Z,101280.88
2022-11-28T17:47:38.926Z,101289.78
2022-11-28T17:52:43.340Z,101293.56
2022-11-28T17:57:46.689Z,101292.75
2022-11-28T18:02:52.154Z,101294.78
2022-11-28T18:07:56.721Z,101308.16
2022-11-28T18:13:02.246Z,101306.47
2022-11-28T18:18:07.272Z,101309.00
2022-11-28T18:23:13.204Z,101317.03
2022-11-28T18:28:18.969Z,101321.53
2022-11-28T18:33:24.035Z,101318.16
2022-11-28T18:38:28.626Z,101319.66
2022-11-28T18:43:31.697Z,101315.91
2022-11-28T18:48:34.956Z,101313.34
2022-11-28T18:53:39.740Z,101314.31
2022-11-28T18:58:45.838Z,101319.00
2022-11-28T19:03:51.062Z,101331.69
2022-11-28T19:08:58.464Z,101328.75
2022-11-28T19:14:01.822Z,101335.63
2022-11-28T19:19:06.845Z,101339.88
2022-11-28T19:24:13.412Z,101339.63
2022-11-28T19:29:17.159Z,101331.56
2022-11-28T19:34:20.333Z,101337.59
2022-11-28T19:39:26.711Z,101343.56
2022-11-28T19:44:30.739Z,101336.38
2022-11-28T19:49:34.462Z,101347.56
2022-11-28T19:54:39.553Z,101349.22
2022-11-28T19:59:43.866Z,101349.91
2022-11-28T20:04:47.062Z,101351.44
2022-11-28T20:09:51.901Z,101360.94
2022-11-28T20:14:55.048Z,101365.91
2022-11-28T20:19:58.697Z,101369.00
2022-11-28T20:25:03.362Z,101376.53
2022-11-28T20:30:07.872Z,101391.13
2022-11-28T20:35:11.404Z,101384.81
2022-11-28T20:40:16.102Z,101397.66
2022-11-28T20:45:19.117Z,101399.75
2022-11-28T20:50:22.381Z,101406.28
2022-11-28T20:55:28.076Z,101410.28
2022-11-28T21:00:31.108Z,101412.59
2022-11-28T21:05:36.130Z,101414.78
2022-11-28T21:10:40.688Z,101409.19
2022-11-28T21:15:46.168Z,101409.00
2022-11-28T21:20:49.265Z,101415.88
2022-11-28T21:25:53.625Z,101418.06
2022-11-28T21:30:57.108Z,101424.63
2022-11-28T21:36:01.132Z,101417.31
2022-11-28T21:41:05.604Z,101411.84
2022-11-28T21:46:09.059Z,101406.44
2022-11-28T21:51:17.210Z,101427.94
2022-11-28T21:56:22.015Z,101428.78
2022-11-28T22:01:25.087Z,101426.84
2022-11-28T22:06:28.938Z,101438.94
2022-11-28T22:11:33.711Z,101440.97
2022-11-28T22:16:36.992Z,101438.91
2022-11-28T22:21:52.291Z,101443.59
2022-11-28T22:26:59.788Z,101441.09
2022-11-28T22:32:04.527Z,101443.63
2022-11-28T22:37:11.168Z,101455.44
2022-11-28T22:42:15.741Z,101447.38
2022-11-28T22:47:19.136Z,101452.94
2022-11-28T22:52:22.736Z,101456.84
2022-11-28T22:57:27.138Z,101466.94
2022-11-28T23:02:33.717Z,101463.84
2022-11-28T23:07:38.830Z,101457.81
2022-11-28T23:12:44.074Z,101460.50
2022-11-28T23:17:47.589Z,101471.78
2022-11-28T23:22:55.213Z,101468.34
2022-11-28T23:28:13.568Z,101475.19
2022-11-28T23:33:17.213Z,101470.59
2022-11-28T23:38:20.297Z,101477.53
2022-11-28T23:43:24.939Z,101478.22
2022-11-28T23:48:27.988Z,101474.59
2022-11-28T23:53:31.249Z,101481.72
2022-11-28T23:58:36.129Z,101492.09
